aviador You're here:

VNKT Decoded Metar

KATHMANDU in NEPAL
Report Time2017-03-01 19:50:00
UTC Time2017-03-01 19:57:35
Flight Rules mvfr MVFR
Wind100° at 03 kt
W.Decomp.*RWY 02: 0.5 kt HW 3.0 kt RCW
W.Rank100° ranks 12
Current wind is below 100° avg. (4.1)
Visibility6000 m
Phenomena:N/A
Clouds:Few 020 Hf
Expected CloudBase > 1,200 ft AGL from Temp-Dew spread
CeilingNone
Temp12°C (ISA +6)
Dew Point09°C (82% RH)
AAT10.7°C
QNH1017 hPa
Density Alt5,092 ft
Elevation4,386 ft
Report Wrong Elevation
Raw Report
VNKT 011950Z 10003KT 6000 FEW020 12/09 Q1017 NOSIG=

Extra information for VNKT:More info

Metar Taf Metar & Taf Last 4 Metars F.Rules Stats Wind Profile Meteogram Temp Stats Airport Information Weather charts Add Link Nearby VenuesMetar ALERT Operation Metar Decoded Social comments